Time;durP1;ratioP1;P1;durP2;ratioP2;P2;SDS_P1;SDS_P2;PMS_P1;PMS_P2;Temp;Humidity;BMP_temperature;BMP_pressure;BME280_temperature;BME280_humidity;BME280_pressure;Samples;Min_cycle;Max_cycle;Signal;HPM_P1;HPM_P2
2021/04/10 00:00:41;;;;;;;20.57;7.13;;;;;;;;;;4997760;28;20187;-70
2021/04/10 00:03:08;;;;;;;20.77;6.77;;;;;;;;;;4992951;28;20292;-70
2021/04/10 00:05:33;;;;;;;16.10;5.57;;;;;;;;;;4997377;28;20274;-70
2021/04/10 00:07:59;;;;;;;15.90;5.70;;;;;;;;;;5011078;28;20290;-70
2021/04/10 00:10:28;;;;;;;19.67;6.47;;;;;;;;;;4991978;28;20708;-70
2021/04/10 00:12:53;;;;;;;17.60;6.43;;;;;;;;;;4990770;28;20184;-70
2021/04/10 00:15:20;;;;;;;20.40;6.40;;;;;;;;;;4988623;28;20275;-70
2021/04/10 00:17:46;;;;;;;19.87;5.90;;;;;;;;;;4994611;28;20222;-70
2021/04/10 00:20:15;;;;;;;16.97;6.33;;;;;;;;;;4991135;28;20248;-69
2021/04/10 00:22:41;;;;;;;26.27;6.50;;;;;;;;;;5000993;28;20632;-69
2021/04/10 00:25:08;;;;;;;17.07;5.87;;;;;;;;;;4989431;28;20202;-69
2021/04/10 00:27:34;;;;;;;18.77;6.47;;;;;;;;;;4999291;28;20526;-70
2021/04/10 00:29:59;;;;;;;15.87;6.03;;;;;;;;;;4991550;28;20180;-70
2021/04/10 00:32:24;;;;;;;18.83;5.53;;;;;;;;;;5000291;28;20877;-70
2021/04/10 00:34:50;;;;;;;19.27;6.37;;;;;;;;;;4990598;28;20226;-70
2021/04/10 00:37:15;;;;;;;14.53;5.50;;;;;;;;;;4995929;28;20825;-70
2021/04/10 00:39:41;;;;;;;16.50;6.23;;;;;;;;;;4990150;28;20229;-70
2021/04/10 00:42:06;;;;;;;20.90;6.47;;;;;;;;;;4993833;28;20278;-70
2021/04/10 00:44:32;;;;;;;18.03;5.83;;;;;;;;;;4993931;28;20273;-68
2021/04/10 00:46:57;;;;;;;17.23;5.30;;;;;;;;;;4990389;28;20595;-70
2021/04/10 00:49:22;;;;;;;21.23;7.00;;;;;;;;;;4995562;28;20734;-69
2021/04/10 00:51:48;;;;;;;13.57;4.83;;;;;;;;;;4986356;28;20608;-70
2021/04/10 00:54:13;;;;;;;19.67;5.67;;;;;;;;;;4994146;28;20183;-68
2021/04/10 00:56:40;;;;;;;13.00;5.30;;;;;;;;;;4992580;28;20278;-69
2021/04/10 00:59:05;;;;;;;14.17;6.30;;;;;;;;;;4992732;28;20273;-68
2021/04/10 01:01:30;;;;;;;16.53;5.90;;;;;;;;;;4990958;28;20411;-69
2021/04/10 01:03:58;;;;;;;15.90;5.67;;;;;;;;;;4993139;28;20298;-69
2021/04/10 01:06:23;;;;;;;18.37;5.97;;;;;;;;;;4988991;28;20245;-70
2021/04/10 01:08:49;;;;;;;16.53;5.33;;;;;;;;;;4995668;28;20183;-69
2021/04/10 01:11:31;;;;;;;16.47;5.57;;;;;;;;;;4989768;28;20189;-70
2021/04/10 01:14:18;;;;;;;18.83;5.93;;;;;;;;;;4993569;28;20325;-69
2021/04/10 01:16:55;;;;;;;17.50;5.67;;;;;;;;;;4996902;28;20564;-69
2021/04/10 01:20:01;;;;;;;13.73;5.20;;;;;;;;;;4993406;28;20182;-69
2021/04/10 01:23:04;;;;;;;14.53;5.67;;;;;;;;;;4991999;28;20183;-69
2021/04/10 01:25:39;;;;;;;14.33;5.30;;;;;;;;;;4990853;28;20651;-69
2021/04/10 01:28:16;;;;;;;18.20;5.30;;;;;;;;;;4987882;28;20195;-69
2021/04/10 01:30:42;;;;;;;11.50;5.27;;;;;;;;;;4991780;28;20179;-69
2021/04/10 01:33:14;;;;;;;15.00;5.57;;;;;;;;;;4987142;28;20187;-69
2021/04/10 01:35:47;;;;;;;14.80;5.13;;;;;;;;;;4990655;28;20187;-68
2021/04/10 01:38:16;;;;;;;15.73;5.00;;;;;;;;;;4991149;28;21984;-69
2021/04/10 01:40:43;;;;;;;20.23;5.60;;;;;;;;;;4998008;28;20319;-70
2021/04/10 01:43:11;;;;;;;11.73;5.33;;;;;;;;;;4986463;28;20216;-69
2021/04/10 01:45:37;;;;;;;18.67;5.63;;;;;;;;;;4997895;28;20233;-70
2021/04/10 01:48:05;;;;;;;13.67;5.00;;;;;;;;;;4992667;28;20191;-69
2021/04/10 01:50:32;;;;;;;18.77;5.97;;;;;;;;;;4995545;28;20695;-69
2021/04/10 01:52:59;;;;;;;17.40;5.67;;;;;;;;;;4994168;28;20608;-70
2021/04/10 01:55:25;;;;;;;19.70;6.17;;;;;;;;;;4989925;28;20191;-69
2021/04/10 01:57:51;;;;;;;17.23;6.37;;;;;;;;;;4991751;28;20252;-70
2021/04/10 02:00:19;;;;;;;17.77;6.77;;;;;;;;;;4988539;28;20619;-70
2021/04/10 02:02:46;;;;;;;21.40;6.93;;;;;;;;;;4998084;28;20706;-70
2021/04/10 02:05:13;;;;;;;19.20;7.43;;;;;;;;;;4986540;28;20199;-70
2021/04/10 02:07:46;;;;;;;15.50;7.20;;;;;;;;;;4993395;28;20194;-69
2021/04/10 02:10:14;;;;;;;18.57;7.20;;;;;;;;;;4993719;28;20586;-70
2021/04/10 02:12:42;;;;;;;21.17;7.90;;;;;;;;;;4997108;28;20318;-73
2021/04/10 02:15:09;;;;;;;22.27;8.23;;;;;;;;;;4989057;28;20194;-70
2021/04/10 02:17:34;;;;;;;21.20;8.77;;;;;;;;;;4997532;28;20643;-70
2021/04/10 02:20:00;;;;;;;17.93;8.27;;;;;;;;;;4992402;28;20381;-71
2021/04/10 02:22:32;;;;;;;22.93;8.40;;;;;;;;;;4997090;28;20187;-70
2021/04/10 02:24:57;;;;;;;19.27;8.57;;;;;;;;;;4992632;28;20199;-70
2021/04/10 02:27:23;;;;;;;21.50;7.67;;;;;;;;;;4997832;28;20256;-68
2021/04/10 02:29:48;;;;;;;16.13;7.60;;;;;;;;;;5002119;28;20193;-69
2021/04/10 02:32:30;;;;;;;19.70;7.50;;;;;;;;;;4991659;28;20180;-70
2021/04/10 02:35:22;;;;;;;15.43;6.80;;;;;;;;;;4995419;28;20180;-69
2021/04/10 02:37:48;;;;;;;16.43;7.73;;;;;;;;;;4994184;28;20298;-69
2021/04/10 02:40:17;;;;;;;18.50;7.90;;;;;;;;;;4996876;28;20257;-70
2021/04/10 02:42:46;;;;;;;22.07;8.03;;;;;;;;;;4990372;28;20213;-70
2021/04/10 02:45:14;;;;;;;19.23;7.60;;;;;;;;;;4999268;28;20182;-69
2021/04/10 02:47:43;;;;;;;17.93;7.57;;;;;;;;;;4990337;28;20277;-70
2021/04/10 02:50:11;;;;;;;14.93;6.80;;;;;;;;;;5003856;28;20240;-69
2021/04/10 02:52:42;;;;;;;14.37;6.53;;;;;;;;;;4994055;28;20201;-69
2021/04/10 02:55:09;;;;;;;17.37;7.53;;;;;;;;;;5001702;28;20198;-69
2021/04/10 02:57:35;;;;;;;22.57;7.27;;;;;;;;;;4993059;28;20195;-69
2021/04/10 03:00:06;;;;;;;20.47;7.03;;;;;;;;;;5011533;28;20283;-70
2021/04/10 03:02:35;;;;;;;17.40;7.77;;;;;;;;;;4993154;28;20208;-70
2021/04/10 03:05:01;;;;;;;15.50;7.50;;;;;;;;;;4991964;28;20175;-70
2021/04/10 03:07:27;;;;;;;20.07;6.83;;;;;;;;;;4990423;28;20525;-69
2021/04/10 03:09:53;;;;;;;20.90;7.40;;;;;;;;;;4996021;28;20179;-69
2021/04/10 03:12:20;;;;;;;17.87;6.20;;;;;;;;;;4988575;28;20199;-69
2021/04/10 03:14:47;;;;;;;16.10;6.40;;;;;;;;;;4999822;28;20176;-70
2021/04/10 03:17:17;;;;;;;19.00;6.47;;;;;;;;;;4998309;28;20559;-69
2021/04/10 03:19:45;;;;;;;16.60;6.10;;;;;;;;;;4991452;28;20206;-69
2021/04/10 03:22:13;;;;;;;17.33;6.27;;;;;;;;;;5002081;28;20552;-69
2021/04/10 03:24:38;;;;;;;18.77;6.93;;;;;;;;;;4990268;28;20717;-69
2021/04/10 03:27:04;;;;;;;22.40;6.33;;;;;;;;;;5001403;28;20273;-69
2021/04/10 03:29:30;;;;;;;15.77;5.60;;;;;;;;;;4994690;28;20190;-69
2021/04/10 03:31:57;;;;;;;21.67;6.13;;;;;;;;;;5003380;28;20194;-69
2021/04/10 03:34:24;;;;;;;12.27;5.93;;;;;;;;;;4986805;28;20670;-68
2021/04/10 03:36:50;;;;;;;16.77;5.70;;;;;;;;;;4998702;28;20550;-69
2021/04/10 03:39:15;;;;;;;22.43;5.53;;;;;;;;;;4990702;28;20189;-69
2021/04/10 03:41:42;;;;;;;16.87;5.20;;;;;;;;;;5002058;28;20237;-69
2021/04/10 03:44:07;;;;;;;13.40;4.47;;;;;;;;;;4986539;28;20286;-69
2021/04/10 03:46:36;;;;;;;13.67;4.27;;;;;;;;;;5000652;28;20658;-70
2021/04/10 03:49:03;;;;;;;14.00;4.40;;;;;;;;;;4987766;28;20558;-70
2021/04/10 03:51:28;;;;;;;13.10;3.80;;;;;;;;;;5004447;28;20239;-70
2021/04/10 03:53:54;;;;;;;10.13;3.80;;;;;;;;;;5000405;28;20223;-70
2021/04/10 03:56:19;;;;;;;13.23;3.63;;;;;;;;;;4989304;28;20187;-70
2021/04/10 03:58:46;;;;;;;12.33;3.37;;;;;;;;;;4997974;28;20186;-70
2021/04/10 04:01:12;;;;;;;10.00;3.33;;;;;;;;;;4986980;28;20183;-71
2021/04/10 04:03:37;;;;;;;10.27;3.20;;;;;;;;;;4998706;28;20200;-70
2021/04/10 04:06:02;;;;;;;13.83;3.90;;;;;;;;;;4995881;28;20200;-70
2021/04/10 04:08:28;;;;;;;14.20;3.33;;;;;;;;;;4993636;28;20274;-69
2021/04/10 04:10:53;;;;;;;15.70;3.97;;;;;;;;;;4987162;28;20191;-70
2021/04/10 04:13:18;;;;;;;9.20;2.90;;;;;;;;;;4994125;28;20175;-70
2021/04/10 04:15:44;;;;;;;14.87;3.30;;;;;;;;;;4989487;28;20194;-70
2021/04/10 04:18:09;;;;;;;8.13;3.00;;;;;;;;;;4993109;28;20183;-69
2021/04/10 04:20:34;;;;;;;12.50;3.50;;;;;;;;;;4993076;28;21750;-69
2021/04/10 04:23:00;;;;;;;10.83;3.33;;;;;;;;;;4987318;28;20270;-69
2021/04/10 04:25:25;;;;;;;13.93;3.37;;;;;;;;;;4990129;28;20178;-69
2021/04/10 04:27:50;;;;;;;10.20;3.23;;;;;;;;;;4988813;28;20194;-69
2021/04/10 04:30:16;;;;;;;10.83;3.50;;;;;;;;;;5002565;28;20644;-69
2021/04/10 04:32:42;;;;;;;9.30;3.87;;;;;;;;;;4989293;28;20207;-70
2021/04/10 04:35:07;;;;;;;11.97;2.93;;;;;;;;;;4301230;28;10000903;-70
2021/04/10 04:37:33;;;;;;;10.03;2.67;;;;;;;;;;4987885;28;20278;-70
2021/04/10 04:39:58;;;;;;;8.20;3.10;;;;;;;;;;4988564;28;20290;-70
2021/04/10 04:42:23;;;;;;;12.50;3.20;;;;;;;;;;4992551;28;20741;-70
2021/04/10 04:44:49;;;;;;;11.50;3.00;;;;;;;;;;5000332;28;20725;-70
2021/04/10 04:47:14;;;;;;;7.93;2.90;;;;;;;;;;4983735;28;20214;-70
2021/04/10 04:49:40;;;;;;;10.73;2.90;;;;;;;;;;4999282;28;20241;-70
2021/04/10 04:52:05;;;;;;;11.80;2.97;;;;;;;;;;4995174;28;20599;-70
2021/04/10 04:54:30;;;;;;;12.53;2.27;;;;;;;;;;4990445;28;20675;-69
2021/04/10 04:56:56;;;;;;;6.57;2.27;;;;;;;;;;4991629;28;20199;-70
2021/04/10 04:59:21;;;;;;;11.00;2.67;;;;;;;;;;4984206;28;20195;-70
2021/04/10 05:01:46;;;;;;;11.47;2.67;;;;;;;;;;4992667;28;20198;-69
2021/04/10 05:04:13;;;;;;;9.47;2.80;;;;;;;;;;4989224;28;20237;-69
2021/04/10 05:06:41;;;;;;;11.17;3.07;;;;;;;;;;4990432;28;20218;-69
2021/04/10 05:09:07;;;;;;;11.83;2.70;;;;;;;;;;4984673;28;20191;-69
2021/04/10 05:11:33;;;;;;;9.60;2.27;;;;;;;;;;4989172;28;20189;-69
2021/04/10 05:13:59;;;;;;;11.73;3.00;;;;;;;;;;4990047;28;20194;-69
2021/04/10 05:16:24;;;;;;;8.90;2.50;;;;;;;;;;4997259;28;20309;-69
2021/04/10 05:18:49;;;;;;;8.83;2.53;;;;;;;;;;4981528;28;20203;-70
2021/04/10 05:21:15;;;;;;;6.30;2.00;;;;;;;;;;4991840;28;20532;-70
2021/04/10 05:23:40;;;;;;;7.30;2.60;;;;;;;;;;4986732;28;20207;-70
2021/04/10 05:26:06;;;;;;;13.07;2.50;;;;;;;;;;4982331;28;20187;-70
2021/04/10 05:28:31;;;;;;;7.33;2.53;;;;;;;;;;4990882;28;20191;-70
2021/04/10 05:31:01;;;;;;;9.57;2.47;;;;;;;;;;4986374;28;20198;-70
2021/04/10 05:33:30;;;;;;;10.07;2.20;;;;;;;;;;4988533;28;20211;-70
2021/04/10 05:35:57;;;;;;;14.37;2.30;;;;;;;;;;4986540;28;20222;-69
2021/04/10 05:38:23;;;;;;;11.97;2.57;;;;;;;;;;4993287;28;20183;-70
2021/04/10 05:40:48;;;;;;;7.90;2.20;;;;;;;;;;4990554;28;20238;-69
2021/04/10 05:43:14;;;;;;;12.67;2.50;;;;;;;;;;4993655;28;20809;-70
2021/04/10 05:45:39;;;;;;;15.23;2.27;;;;;;;;;;4989808;28;20195;-70
2021/04/10 05:48:05;;;;;;;9.27;2.30;;;;;;;;;;4994562;28;20187;-70
2021/04/10 05:50:30;;;;;;;14.13;2.23;;;;;;;;;;4986565;28;20222;-69
2021/04/10 05:52:55;;;;;;;11.40;2.07;;;;;;;;;;4992488;28;20187;-69
2021/04/10 05:55:21;;;;;;;7.80;2.17;;;;;;;;;;4989541;28;20845;-70
2021/04/10 05:57:46;;;;;;;9.97;2.20;;;;;;;;;;4991454;28;20182;-71
2021/04/10 06:00:12;;;;;;;9.77;2.30;;;;;;;;;;4994640;28;20307;-70
2021/04/10 06:02:38;;;;;;;8.90;2.00;;;;;;;;;;4988547;28;20217;-70
2021/04/10 06:05:04;;;;;;;12.50;2.50;;;;;;;;;;4998441;28;20195;-69
2021/04/10 06:07:29;;;;;;;9.57;1.83;;;;;;;;;;5000907;28;20250;-70
2021/04/10 06:09:54;;;;;;;11.63;2.20;;;;;;;;;;4989834;28;20203;-71
2021/04/10 06:12:20;;;;;;;9.73;2.30;;;;;;;;;;4984686;28;20639;-69
2021/04/10 06:14:45;;;;;;;9.70;2.10;;;;;;;;;;4994075;28;20278;-70
2021/04/10 06:17:11;;;;;;;11.33;2.20;;;;;;;;;;4986723;28;20603;-70
2021/04/10 06:19:36;;;;;;;13.57;2.30;;;;;;;;;;4989819;28;20194;-69
2021/04/10 06:22:01;;;;;;;11.30;2.30;;;;;;;;;;4985633;28;20200;-70
2021/04/10 06:24:27;;;;;;;15.57;2.70;;;;;;;;;;4993774;28;20290;-70
2021/04/10 06:26:52;;;;;;;7.07;2.20;;;;;;;;;;4993606;28;20605;-71
2021/04/10 06:29:17;;;;;;;9.43;2.00;;;;;;;;;;4999475;28;20937;-70
2021/04/10 06:31:44;;;;;;;7.27;2.00;;;;;;;;;;4993863;28;20613;-70
2021/04/10 06:34:09;;;;;;;9.97;1.80;;;;;;;;;;4988290;28;20183;-70
2021/04/10 06:36:35;;;;;;;9.37;2.00;;;;;;;;;;4991431;28;20195;-70
2021/04/10 06:39:01;;;;;;;9.27;2.10;;;;;;;;;;4989709;28;20203;-70
2021/04/10 06:41:27;;;;;;;10.40;2.13;;;;;;;;;;4993159;28;20258;-70
2021/04/10 06:43:53;;;;;;;9.90;1.87;;;;;;;;;;4990653;28;20199;-70
2021/04/10 06:46:19;;;;;;;10.60;2.53;;;;;;;;;;4991872;28;20209;-70
2021/04/10 06:48:45;;;;;;;9.97;2.30;;;;;;;;;;4992346;28;20589;-70
2021/04/10 06:51:14;;;;;;;10.63;2.60;;;;;;;;;;4994539;28;20595;-70
2021/04/10 06:53:46;;;;;;;19.53;4.13;;;;;;;;;;4987964;28;20242;-70
2021/04/10 06:56:17;;;;;;;11.57;2.70;;;;;;;;;;4989243;28;20193;-71
2021/04/10 06:59:03;;;;;;;9.60;2.60;;;;;;;;;;4988916;28;20171;-69
2021/04/10 07:01:29;;;;;;;9.97;2.37;;;;;;;;;;4986647;28;20598;-70
2021/04/10 07:03:54;;;;;;;8.20;2.43;;;;;;;;;;4987302;28;20204;-70
2021/04/10 07:06:20;;;;;;;10.90;2.83;;;;;;;;;;4994133;28;20193;-70
2021/04/10 07:08:46;;;;;;;11.57;1.93;;;;;;;;;;4999096;28;20193;-70
2021/04/10 07:11:15;;;;;;;7.27;1.60;;;;;;;;;;4986586;28;20313;-69
2021/04/10 07:13:41;;;;;;;15.80;2.43;;;;;;;;;;4996829;28;20480;-70
2021/04/10 07:16:07;;;;;;;9.27;1.80;;;;;;;;;;4989079;28;20212;-69
2021/04/10 07:18:33;;;;;;;7.53;1.83;;;;;;;;;;4992602;28;20651;-70
2021/04/10 07:21:24;;;;;;;8.90;1.50;;;;;;;;;;4989156;28;20270;-69
2021/04/10 07:23:55;;;;;;;13.23;2.10;;;;;;;;;;4996589;28;20213;-69
2021/04/10 07:26:46;;;;;;;12.73;2.00;;;;;;;;;;4989607;28;20194;-70
2021/04/10 07:29:43;;;;;;;8.43;1.60;;;;;;;;;;4997184;28;20270;-70
2021/04/10 07:32:34;;;;;;;8.87;1.80;;;;;;;;;;4993207;28;20189;-70
2021/04/10 07:35:01;;;;;;;8.25;1.63;;;;;;;;;;4999112;28;20611;-70
2021/04/10 07:37:38;;;;;;;9.97;1.70;;;;;;;;;;4988962;28;20627;-69
2021/04/10 07:40:05;;;;;;;9.80;2.00;;;;;;;;;;4996042;28;20580;-69
2021/04/10 07:42:31;;;;;;;8.27;2.00;;;;;;;;;;4991089;28;20285;-69
2021/04/10 07:44:57;;;;;;;9.27;1.77;;;;;;;;;;4994610;28;20718;-69
2021/04/10 07:47:34;;;;;;;8.20;1.57;;;;;;;;;;4987306;28;20183;-69
2021/04/10 07:50:35;;;;;;;15.93;2.03;;;;;;;;;;4993105;28;20649;-69
2021/04/10 07:53:22;;;;;;;10.23;1.87;;;;;;;;;;4977447;28;20194;-69
2021/04/10 07:55:48;;;;;;;9.60;1.33;;;;;;;;;;4993213;28;20745;-69
2021/04/10 07:58:39;;;;;;;11.52;2.65;;;;;;;;;;4986912;28;20241;-71
2021/04/10 08:01:10;;;;;;;4.67;1.30;;;;;;;;;;4992711;28;20642;-69
2021/04/10 08:03:48;;;;;;;5.63;1.50;;;;;;;;;;4988981;28;20258;-69
2021/04/10 08:06:14;;;;;;;10.50;2.13;;;;;;;;;;4991288;28;20186;-69
2021/04/10 08:08:56;;;;;;;5.85;1.30;;;;;;;;;;4987804;28;20697;-70
2021/04/10 08:11:36;;;;;;;11.05;1.70;;;;;;;;;;4992454;28;20183;-69
2021/04/10 08:14:11;;;;;;;7.50;1.70;;;;;;;;;;4991139;28;20579;-70
2021/04/10 08:16:41;;;;;;;8.77;1.75;;;;;;;;;;4993503;28;20199;-70
2021/04/10 08:19:07;;;;;;;9.68;1.92;;;;;;;;;;4986464;28;20555;-70
2021/04/10 08:21:32;;;;;;;9.45;1.88;;;;;;;;;;4992747;28;20187;-70
2021/04/10 08:24:03;;;;;;;6.30;1.60;;;;;;;;;;4988352;28;20966;-70
2021/04/10 08:26:28;;;;;;;9.95;1.58;;;;;;;;;;4993796;28;20222;-69
2021/04/10 08:28:54;;;;;;;10.57;1.77;;;;;;;;;;4984663;28;20195;-69
2021/04/10 08:31:19;;;;;;;12.85;1.95;;;;;;;;;;4992225;28;20179;-69
2021/04/10 08:33:45;;;;;;;9.50;2.00;;;;;;;;;;4985342;28;26419;-69
2021/04/10 08:36:12;;;;;;;12.07;1.95;;;;;;;;;;4995083;28;20218;-69
2021/04/10 08:38:40;;;;;;;8.32;2.38;;;;;;;;;;4986801;28;20491;-70
2021/04/10 08:41:07;;;;;;;10.70;2.23;;;;;;;;;;4990225;28;20235;-70
2021/04/10 08:43:36;;;;;;;12.35;2.78;;;;;;;;;;4992023;28;20270;-69
2021/04/10 08:46:03;;;;;;;9.95;2.65;;;;;;;;;;4986214;28;20917;-69
2021/04/10 08:48:29;;;;;;;9.10;2.60;;;;;;;;;;4987975;28;20203;-70
2021/04/10 08:50:59;;;;;;;6.35;2.72;;;;;;;;;;4986171;28;20235;-70
2021/04/10 08:53:33;;;;;;;6.57;3.05;;;;;;;;;;4994392;28;20183;-70
2021/04/10 08:55:59;;;;;;;15.40;3.63;;;;;;;;;;4984215;28;20191;-70
2021/04/10 08:58:30;;;;;;;10.55;3.55;;;;;;;;;;4992709;28;20191;-70
2021/04/10 09:01:06;;;;;;;12.32;3.78;;;;;;;;;;4985878;28;20262;-69
2021/04/10 09:03:50;;;;;;;14.38;4.00;;;;;;;;;;4300748;28;10000861;-70
2021/04/10 09:06:33;;;;;;;15.43;3.83;;;;;;;;;;4984628;28;20565;-69
2021/04/10 09:09:11;;;;;;;12.73;2.60;;;;;;;;;;4988679;28;20226;-69
2021/04/10 09:11:40;;;;;;;13.82;3.00;;;;;;;;;;4986223;28;20197;-70
2021/04/10 09:14:05;;;;;;;10.68;2.50;;;;;;;;;;5007035;28;20195;-70
2021/04/10 09:16:47;;;;;;;9.65;2.40;;;;;;;;;;4988721;28;20225;-70
2021/04/10 09:19:20;;;;;;;11.13;2.35;;;;;;;;;;4989656;28;20199;-70
2021/04/10 09:21:59;;;;;;;7.35;3.00;;;;;;;;;;4987156;28;20829;-69
2021/04/10 09:24:26;;;;;;;15.23;3.55;;;;;;;;;;4997030;28;20214;-70
2021/04/10 09:26:54;;;;;;;9.25;2.85;;;;;;;;;;4986446;28;20199;-70
2021/04/10 09:29:20;;;;;;;11.15;2.80;;;;;;;;;;4987429;28;20191;-69
2021/04/10 09:31:49;;;;;;;8.25;2.90;;;;;;;;;;4984835;28;20198;-70
2021/04/10 09:34:42;;;;;;;11.48;3.05;;;;;;;;;;4988077;28;20595;-69
2021/04/10 09:37:08;;;;;;;15.77;3.47;;;;;;;;;;4981679;28;20198;-69
2021/04/10 09:39:51;;;;;;;12.35;3.08;;;;;;;;;;4990085;28;20190;-69
2021/04/10 09:42:35;;;;;;;16.23;4.22;;;;;;;;;;4989678;28;20195;-69
2021/04/10 09:45:19;;;;;;;7.95;3.58;;;;;;;;;;4992819;28;20200;-68
2021/04/10 09:47:57;;;;;;;8.73;3.53;;;;;;;;;;4986567;28;20187;-69
2021/04/10 09:50:23;;;;;;;13.07;4.07;;;;;;;;;;4990146;28;20203;-70
2021/04/10 09:53:00;;;;;;;13.45;4.68;;;;;;;;;;4985570;28;20193;-70
2021/04/10 09:55:27;;;;;;;8.35;4.03;;;;;;;;;;4991760;28;20651;-70
2021/04/10 09:57:59;;;;;;;12.48;4.72;;;;;;;;;;4987240;28;20199;-70
2021/04/10 10:00:29;;;;;;;16.80;4.25;;;;;;;;;;4994361;28;20204;-70
2021/04/10 10:02:55;;;;;;;10.88;4.22;;;;;;;;;;4984079;28;20329;-70
2021/04/10 10:05:22;;;;;;;9.80;3.70;;;;;;;;;;4990902;28;20646;-70
2021/04/10 10:07:48;;;;;;;8.45;3.80;;;;;;;;;;4992736;28;20179;-69
2021/04/10 10:10:14;;;;;;;10.35;3.42;;;;;;;;;;4986984;28;20196;-70
2021/04/10 10:12:39;;;;;;;8.68;3.10;;;;;;;;;;4994716;28;20702;-70
2021/04/10 10:15:21;;;;;;;7.50;2.90;;;;;;;;;;4984703;28;20361;-70
2021/04/10 10:17:46;;;;;;;9.98;3.45;;;;;;;;;;4990747;28;20203;-70
2021/04/10 10:20:13;;;;;;;10.35;3.25;;;;;;;;;;4988361;28;20191;-69
2021/04/10 10:22:40;;;;;;;12.48;3.75;;;;;;;;;;4992634;28;20187;-70
2021/04/10 10:25:06;;;;;;;9.07;4.03;;;;;;;;;;4990897;28;20191;-70
2021/04/10 10:27:33;;;;;;;14.13;4.20;;;;;;;;;;4994396;28;20187;-70
2021/04/10 10:29:59;;;;;;;15.18;3.78;;;;;;;;;;4984140;28;20187;-70
2021/04/10 10:32:24;;;;;;;12.05;3.95;;;;;;;;;;4993786;28;20191;-69
2021/04/10 10:34:49;;;;;;;11.32;3.42;;;;;;;;;;4994384;28;20237;-69
2021/04/10 10:37:15;;;;;;;8.82;3.63;;;;;;;;;;4994660;28;20195;-70
2021/04/10 10:39:43;;;;;;;14.35;3.83;;;;;;;;;;4988495;28;20663;-69
2021/04/10 10:42:09;;;;;;;12.35;3.80;;;;;;;;;;4994693;28;20690;-69
2021/04/10 10:44:36;;;;;;;10.93;3.85;;;;;;;;;;4997718;28;20211;-69
2021/04/10 10:47:08;;;;;;;6.68;3.33;;;;;;;;;;4989668;28;20198;-70
2021/04/10 10:49:34;;;;;;;9.38;3.53;;;;;;;;;;4997632;28;20198;-70
2021/04/10 10:52:00;;;;;;;14.80;4.00;;;;;;;;;;4987096;28;20575;-70
2021/04/10 10:54:30;;;;;;;8.48;3.10;;;;;;;;;;4998862;28;20261;-69
2021/04/10 10:56:56;;;;;;;11.77;4.18;;;;;;;;;;4988280;28;20195;-70
2021/04/10 10:59:26;;;;;;;12.90;4.03;;;;;;;;;;4995741;28;20174;-70
2021/04/10 11:01:52;;;;;;;12.73;4.57;;;;;;;;;;4989625;28;21628;-70
2021/04/10 11:04:20;;;;;;;10.52;3.72;;;;;;;;;;4989925;28;20207;-70
2021/04/10 11:06:50;;;;;;;12.38;4.50;;;;;;;;;;4988187;28;20902;-70
2021/04/10 11:09:37;;;;;;;12.88;3.33;;;;;;;;;;4993576;28;20202;-70
2021/04/10 11:12:10;;;;;;;9.65;4.10;;;;;;;;;;4988007;28;20202;-70
2021/04/10 11:14:41;;;;;;;7.57;2.95;;;;;;;;;;4996925;28;20195;-70
2021/04/10 11:17:07;;;;;;;9.80;3.72;;;;;;;;;;4984766;28;20187;-70
2021/04/10 11:19:33;;;;;;;10.88;4.70;;;;;;;;;;4995846;28;20175;-70
2021/04/10 11:22:01;;;;;;;8.40;5.03;;;;;;;;;;4991786;28;20317;-70
2021/04/10 11:24:41;;;;;;;12.55;4.72;;;;;;;;;;4991733;28;20205;-70
2021/04/10 11:27:25;;;;;;;12.20;4.00;;;;;;;;;;4993830;28;20210;-70
2021/04/10 11:30:03;;;;;;;10.55;4.50;;;;;;;;;;4995697;28;20188;-70
2021/04/10 11:32:43;;;;;;;9.63;4.25;;;;;;;;;;4989817;28;20214;-70
2021/04/10 11:35:08;;;;;;;12.90;4.68;;;;;;;;;;4990557;28;20555;-71
2021/04/10 11:37:34;;;;;;;12.27;4.38;;;;;;;;;;4989516;28;20211;-70
2021/04/10 11:40:00;;;;;;;13.05;4.65;;;;;;;;;;4983545;28;20631;-70
2021/04/10 11:42:32;;;;;;;9.43;4.45;;;;;;;;;;4993936;28;20211;-69
2021/04/10 11:45:00;;;;;;;11.63;4.40;;;;;;;;;;4985447;28;20219;-71
2021/04/10 11:47:28;;;;;;;12.98;4.50;;;;;;;;;;4992475;28;20843;-70
2021/04/10 11:50:04;;;;;;;14.80;4.75;;;;;;;;;;4988367;28;20246;-70
2021/04/10 11:52:29;;;;;;;10.98;4.07;;;;;;;;;;4993826;28;20281;-70
2021/04/10 11:55:03;;;;;;;9.85;4.13;;;;;;;;;;4987896;28;20341;-70
2021/04/10 11:57:30;;;;;;;12.02;3.95;;;;;;;;;;4993275;28;20199;-70
2021/04/10 12:00:05;;;;;;;14.55;4.05;;;;;;;;;;4984400;28;20214;-70
2021/04/10 12:02:34;;;;;;;10.23;3.67;;;;;;;;;;4992318;28;20210;-70
2021/04/10 12:05:37;;;;;;;12.18;3.75;;;;;;;;;;4989822;28;20210;-70
2021/04/10 12:08:14;;;;;;;9.40;3.47;;;;;;;;;;4984130;28;20202;-70
2021/04/10 12:10:42;;;;;;;7.63;3.17;;;;;;;;;;4986803;28;20183;-70
2021/04/10 12:13:09;;;;;;;9.10;3.05;;;;;;;;;;4994460;28;20194;-70
2021/04/10 12:15:37;;;;;;;6.30;2.90;;;;;;;;;;4987143;28;20590;-70
2021/04/10 12:18:04;;;;;;;8.95;3.40;;;;;;;;;;4993595;28;20210;-70
2021/04/10 12:20:30;;;;;;;12.10;2.85;;;;;;;;;;4989827;28;20835;-70
2021/04/10 12:22:56;;;;;;;9.85;3.30;;;;;;;;;;4991429;28;20179;-69
2021/04/10 12:25:22;;;;;;;11.98;3.53;;;;;;;;;;4986686;28;20674;-70
2021/04/10 12:27:47;;;;;;;8.98;3.15;;;;;;;;;;4989195;28;20187;-70
2021/04/10 12:30:14;;;;;;;10.18;4.60;;;;;;;;;;4995303;28;20182;-70
2021/04/10 12:32:39;;;;;;;8.95;3.35;;;;;;;;;;4987256;28;20285;-71
2021/04/10 12:35:05;;;;;;;9.02;2.92;;;;;;;;;;4987984;28;20270;-70
2021/04/10 12:37:31;;;;;;;8.40;2.83;;;;;;;;;;4984745;28;20195;-71
2021/04/10 12:39:56;;;;;;;9.13;2.55;;;;;;;;;;4992882;28;20617;-71
2021/04/10 12:42:22;;;;;;;11.20;2.83;;;;;;;;;;4989312;28;20218;-71
2021/04/10 12:44:48;;;;;;;13.20;3.53;;;;;;;;;;4991475;28;20211;-70
2021/04/10 12:47:16;;;;;;;5.53;2.50;;;;;;;;;;4984052;28;20226;-70
2021/04/10 12:49:41;;;;;;;13.23;2.92;;;;;;;;;;4992983;28;20187;-71
2021/04/10 12:52:07;;;;;;;8.45;2.75;;;;;;;;;;4982632;28;20281;-70
2021/04/10 12:54:32;;;;;;;13.05;2.97;;;;;;;;;;4995720;28;20189;-71
2021/04/10 12:56:57;;;;;;;11.85;3.35;;;;;;;;;;4987009;28;20953;-70
2021/04/10 12:59:23;;;;;;;12.02;2.90;;;;;;;;;;4994592;28;20199;-70
2021/04/10 13:01:48;;;;;;;10.02;2.28;;;;;;;;;;4993678;28;20194;-70
2021/04/10 13:04:13;;;;;;;9.57;2.72;;;;;;;;;;4986373;28;20241;-70
2021/04/10 13:06:39;;;;;;;10.60;3.47;;;;;;;;;;4992782;28;20176;-70
2021/04/10 13:09:04;;;;;;;13.00;3.80;;;;;;;;;;4984669;28;20187;-70
2021/04/10 13:11:29;;;;;;;15.80;3.80;;;;;;;;;;4994124;28;20628;-70
2021/04/10 13:13:55;;;;;;;13.77;3.43;;;;;;;;;;4985866;28;21607;-70
2021/04/10 13:16:20;;;;;;;8.90;2.93;;;;;;;;;;4996140;28;20676;-70
2021/04/10 13:18:45;;;;;;;10.57;3.00;;;;;;;;;;4987142;28;20716;-70
2021/04/10 13:21:11;;;;;;;7.50;3.07;;;;;;;;;;4993344;28;20195;-70
2021/04/10 13:23:36;;;;;;;7.60;2.23;;;;;;;;;;4989232;28;20281;-70
2021/04/10 13:26:02;;;;;;;10.50;2.90;;;;;;;;;;4990098;28;20179;-71
2021/04/10 13:28:27;;;;;;;11.47;3.10;;;;;;;;;;4987758;28;20333;-70
2021/04/10 13:30:52;;;;;;;8.17;2.83;;;;;;;;;;4997578;28;20229;-70
2021/04/10 13:33:18;;;;;;;7.63;3.07;;;;;;;;;;4995812;28;20187;-71
2021/04/10 13:35:43;;;;;;;6.90;2.73;;;;;;;;;;4987874;28;20191;-71
2021/04/10 13:38:08;;;;;;;6.67;2.70;;;;;;;;;;4995375;28;20199;-70
2021/04/10 13:40:35;;;;;;;8.43;3.40;;;;;;;;;;4987822;28;20218;-70
2021/04/10 13:43:00;;;;;;;17.63;3.43;;;;;;;;;;4643817;28;10000208;-70
2021/04/10 13:45:25;;;;;;;8.13;3.50;;;;;;;;;;4985241;28;20230;-71
2021/04/10 13:47:51;;;;;;;9.83;3.20;;;;;;;;;;4998120;28;20178;-71
2021/04/10 13:50:16;;;;;;;9.77;2.90;;;;;;;;;;4986930;28;20202;-71
2021/04/10 13:52:43;;;;;;;8.93;2.90;;;;;;;;;;4990161;28;20187;-71
2021/04/10 13:55:09;;;;;;;13.17;3.23;;;;;;;;;;4981915;28;20539;-71
2021/04/10 13:57:35;;;;;;;9.23;2.97;;;;;;;;;;4993803;28;20215;-71
2021/04/10 14:00:00;;;;;;;10.27;3.27;;;;;;;;;;4982929;28;20250;-71
2021/04/10 14:02:25;;;;;;;10.07;3.17;;;;;;;;;;4994032;28;20199;-71
2021/04/10 14:04:57;;;;;;;7.37;2.90;;;;;;;;;;4997749;28;20218;-71
2021/04/10 14:07:22;;;;;;;13.60;4.63;;;;;;;;;;5003913;28;20205;-72
2021/04/10 14:09:48;;;;;;;12.80;3.83;;;;;;;;;;4650672;28;10000454;-71
2021/04/10 14:12:13;;;;;;;6.73;3.20;;;;;;;;;;4989766;28;20199;-71
2021/04/10 14:14:40;;;;;;;12.57;3.57;;;;;;;;;;4995151;28;20206;-71
2021/04/10 14:17:05;;;;;;;11.70;3.90;;;;;;;;;;4992057;28;20207;-71
2021/04/10 14:19:31;;;;;;;11.87;3.43;;;;;;;;;;4998683;28;20249;-72
2021/04/10 14:21:57;;;;;;;13.03;3.93;;;;;;;;;;4642268;28;10000284;-73
2021/04/10 14:24:23;;;;;;;15.27;4.23;;;;;;;;;;4993774;28;20215;-71
2021/04/10 14:26:49;;;;;;;11.90;4.13;;;;;;;;;;4990701;28;20257;-70
2021/04/10 14:29:14;;;;;;;11.17;3.97;;;;;;;;;;5000930;28;20186;-71
2021/04/10 14:31:40;;;;;;;12.23;4.20;;;;;;;;;;4990924;28;20542;-71
2021/04/10 14:34:05;;;;;;;17.53;4.07;;;;;;;;;;4990650;28;20965;-71
2021/04/10 14:36:30;;;;;;;13.97;4.27;;;;;;;;;;4991902;28;20668;-72
2021/04/10 14:38:56;;;;;;;15.30;5.17;;;;;;;;;;4997487;28;20191;-72
2021/04/10 14:41:21;;;;;;;14.43;4.63;;;;;;;;;;4996164;28;20246;-72